EZY67XU EGBB-GCLP
Flight info
| Callsign | EZY67XU |
|---|---|
| Flight time | N/A |
| Altitude | 35000 |
| Route | CPT Y321 PEPIS Q41 SAM M195 LORKU DCT BALDA DCT BATAX DCT PINOX DCT TOFEF DCT BIRBA DCT OSLAD UR724 IBALU UN857 TERTO |
| Aircraft | A320/M-SDE3FGHIRWY/LB1 |
Departure
| Time | 2026-05-08 08:13 |
|---|---|
| Airport | Birmingham Airport (EGBB) |
Arrival
| Time | N/A |
|---|---|
| Airport | Gran Canaria Airport (GCLP) |
| Time | Latitude | Longitude | Altitude | Speed | Heading |
|---|---|---|---|---|---|
| 2026-05-08 07:28 | 52.45139 | -1.73434 | 324 ft | 0 kts | 141° |
| 2026-05-08 08:01 | 52.45147 | -1.73444 | 323 ft | 4 kts | 143° |
| 2026-05-08 08:02 | 52.45169 | -1.73468 | 323 ft | 4 kts | 158° |
| 2026-05-08 08:02 | 52.45194 | -1.73476 | 321 ft | 4 kts | 196° |
| 2026-05-08 08:02 | 52.45207 | -1.73463 | 323 ft | 1 kts | 236° |
| 2026-05-08 08:02 | 52.45209 | -1.73459 | 323 ft | 0 kts | 236° |
| 2026-05-08 08:04 | 52.45197 | -1.73487 | 321 ft | 6 kts | 236° |
| 2026-05-08 08:05 | 52.45177 | -1.73536 | 323 ft | 4 kts | 236° |
| 2026-05-08 08:05 | 52.45163 | -1.73569 | 323 ft | 3 kts | 236° |
| 2026-05-08 08:05 | 52.45140 | -1.73623 | 323 ft | 12 kts | 236° |
| 2026-05-08 08:05 | 52.45103 | -1.73728 | 323 ft | 9 kts | 260° |
| 2026-05-08 08:06 | 52.45130 | -1.73808 | 323 ft | 7 kts | 323° |
| 2026-05-08 08:06 | 52.45166 | -1.73848 | 323 ft | 5 kts | 326° |
| 2026-05-08 08:06 | 52.45208 | -1.73894 | 323 ft | 9 kts | 326° |
| 2026-05-08 08:06 | 52.45253 | -1.73944 | 323 ft | 7 kts | 326° |
| 2026-05-08 08:07 | 52.45288 | -1.73983 | 323 ft | 5 kts | 326° |
| 2026-05-08 08:07 | 52.45314 | -1.74043 | 323 ft | 8 kts | 296° |
| 2026-05-08 08:07 | 52.45336 | -1.74114 | 323 ft | 6 kts | 296° |
| 2026-05-08 08:07 | 52.45353 | -1.74169 | 323 ft | 5 kts | 296° |
| 2026-05-08 08:08 | 52.45372 | -1.74234 | 323 ft | 9 kts | 296° |
| 2026-05-08 08:08 | 52.45402 | -1.74335 | 323 ft | 12 kts | 297° |
| 2026-05-08 08:08 | 52.45438 | -1.74451 | 323 ft | 10 kts | 297° |
| 2026-05-08 08:08 | 52.45468 | -1.74549 | 323 ft | 9 kts | 297° |
| 2026-05-08 08:09 | 52.45507 | -1.74608 | 323 ft | 7 kts | 325° |
| 2026-05-08 08:09 | 52.45576 | -1.74685 | 320 ft | 20 kts | 327° |
| 2026-05-08 08:09 | 52.45710 | -1.74832 | 312 ft | 24 kts | 325° |
| 2026-05-08 08:09 | 52.45855 | -1.74995 | 308 ft | 26 kts | 326° |
| 2026-05-08 08:10 | 52.45997 | -1.75154 | 305 ft | 25 kts | 326° |
| 2026-05-08 08:10 | 52.46143 | -1.75315 | 303 ft | 26 kts | 326° |
| 2026-05-08 08:10 | 52.46294 | -1.75482 | 302 ft | 26 kts | 326° |
| 2026-05-08 08:10 | 52.46436 | -1.75639 | 302 ft | 23 kts | 325° |
| 2026-05-08 08:11 | 52.46534 | -1.75753 | 306 ft | 12 kts | 321° |
| 2026-05-08 08:11 | 52.46591 | -1.75821 | 306 ft | 8 kts | 325° |
| 2026-05-08 08:11 | 52.46627 | -1.75864 | 309 ft | 5 kts | 319° |
| 2026-05-08 08:11 | 52.46633 | -1.75920 | 306 ft | 9 kts | 256° |
| 2026-05-08 08:12 | 52.46596 | -1.76016 | 305 ft | 10 kts | 237° |
| 2026-05-08 08:12 | 52.46558 | -1.76091 | 305 ft | 7 kts | 205° |
| 2026-05-08 08:12 | 52.46538 | -1.76082 | 307 ft | 0 kts | 145° |
| 2026-05-08 08:12 | 52.46525 | -1.76068 | 308 ft | 18 kts | 145° |
| 2026-05-08 08:13 | 52.46219 | -1.75728 | 310 ft | 87 kts | 146° |
| 2026-05-08 08:13 | 52.45562 | -1.74997 | 323 ft | 139 kts | 146° |
| 2026-05-08 08:13 | 52.44661 | -1.74012 | 637 ft | 158 kts | 147° |
| 2026-05-08 08:13 | 52.43744 | -1.73033 | 1408 ft | 156 kts | 145° |
| 2026-05-08 08:14 | 52.42825 | -1.72006 | 1950 ft | 165 kts | 145° |
| 2026-05-08 08:14 | 52.41828 | -1.70881 | 2211 ft | 187 kts | 145° |
| 2026-05-08 08:14 | 52.40589 | -1.69926 | 2534 ft | 205 kts | 166° |
| 2026-05-08 08:14 | 52.39193 | -1.69368 | 3229 ft | 207 kts | 165° |
| 2026-05-08 08:15 | 52.37813 | -1.68657 | 3933 ft | 209 kts | 154° |
| 2026-05-08 08:15 | 52.36504 | -1.67582 | 4646 ft | 211 kts | 153° |
| 2026-05-08 08:15 | 52.35188 | -1.66512 | 5347 ft | 212 kts | 155° |
| 2026-05-08 08:15 | 52.33777 | -1.65498 | 5698 ft | 233 kts | 157° |
| 2026-05-08 08:16 | 52.32217 | -1.64467 | 5962 ft | 254 kts | 158° |
| 2026-05-08 08:16 | 52.30549 | -1.63388 | 6488 ft | 260 kts | 158° |
| 2026-05-08 08:16 | 52.28857 | -1.62296 | 7233 ft | 263 kts | 158° |
| 2026-05-08 08:16 | 52.27143 | -1.61184 | 7956 ft | 267 kts | 159° |
| 2026-05-08 08:17 | 52.25408 | -1.60057 | 8705 ft | 270 kts | 159° |
| 2026-05-08 08:17 | 52.23636 | -1.58975 | 9424 ft | 273 kts | 162° |
| 2026-05-08 08:17 | 52.21838 | -1.58028 | 10129 ft | 276 kts | 165° |
| 2026-05-08 08:17 | 52.19985 | -1.57114 | 10783 ft | 280 kts | 165° |
| 2026-05-08 08:18 | 52.18107 | -1.56204 | 11447 ft | 283 kts | 165° |
| 2026-05-08 08:18 | 52.16207 | -1.55278 | 12108 ft | 286 kts | 165° |
| 2026-05-08 08:18 | 52.14276 | -1.54325 | 12766 ft | 290 kts | 165° |
| 2026-05-08 08:18 | 52.12340 | -1.53360 | 13401 ft | 293 kts | 165° |
| 2026-05-08 08:19 | 52.10377 | -1.52375 | 14030 ft | 297 kts | 165° |
| 2026-05-08 08:19 | 52.08399 | -1.51383 | 14592 ft | 299 kts | 165° |
| 2026-05-08 08:19 | 52.06395 | -1.50380 | 15183 ft | 302 kts | 165° |
| 2026-05-08 08:19 | 52.04378 | -1.49367 | 15764 ft | 305 kts | 165° |
| 2026-05-08 08:20 | 52.02336 | -1.48343 | 16307 ft | 308 kts | 165° |
| 2026-05-08 08:20 | 52.00303 | -1.47324 | 16865 ft | 311 kts | 165° |
| 2026-05-08 08:20 | 51.98228 | -1.46281 | 17409 ft | 313 kts | 165° |
| 2026-05-08 08:20 | 51.96136 | -1.45227 | 17980 ft | 316 kts | 165° |
| 2026-05-08 08:21 | 51.94030 | -1.44172 | 18516 ft | 318 kts | 165° |
| 2026-05-08 08:21 | 51.91900 | -1.43108 | 18986 ft | 321 kts | 165° |
| 2026-05-08 08:21 | 51.89780 | -1.42049 | 19450 ft | 323 kts | 165° |
| 2026-05-08 08:21 | 51.87619 | -1.40971 | 19917 ft | 326 kts | 164° |
| 2026-05-08 08:22 | 51.85434 | -1.39882 | 20375 ft | 328 kts | 164° |
| 2026-05-08 08:22 | 51.83241 | -1.38787 | 20820 ft | 331 kts | 164° |
| 2026-05-08 08:22 | 51.81026 | -1.37685 | 21282 ft | 333 kts | 164° |
| 2026-05-08 08:22 | 51.78825 | -1.36593 | 21725 ft | 336 kts | 164° |
| 2026-05-08 08:23 | 51.76578 | -1.35479 | 22179 ft | 338 kts | 164° |
| 2026-05-08 08:23 | 51.74321 | -1.34360 | 22623 ft | 341 kts | 164° |
| 2026-05-08 08:23 | 51.72046 | -1.33232 | 23061 ft | 343 kts | 164° |
| 2026-05-08 08:23 | 51.69749 | -1.32095 | 23513 ft | 346 kts | 164° |
| 2026-05-08 08:24 | 51.67436 | -1.30953 | 23909 ft | 348 kts | 164° |
| 2026-05-08 08:24 | 51.65114 | -1.29811 | 24258 ft | 351 kts | 164° |
| 2026-05-08 08:24 | 51.62790 | -1.28670 | 24574 ft | 354 kts | 165° |
| 2026-05-08 08:24 | 51.60422 | -1.27508 | 24906 ft | 357 kts | 164° |
| 2026-05-08 08:25 | 51.58031 | -1.26332 | 25219 ft | 361 kts | 164° |
| 2026-05-08 08:25 | 51.55621 | -1.25147 | 25534 ft | 364 kts | 164° |
| 2026-05-08 08:25 | 51.53177 | -1.23945 | 25852 ft | 367 kts | 164° |
| 2026-05-08 08:25 | 51.50717 | -1.22754 | 26154 ft | 370 kts | 167° |
| 2026-05-08 08:26 | 51.48169 | -1.22116 | 26428 ft | 373 kts | 179° |
| 2026-05-08 08:26 | 51.45585 | -1.22230 | 26558 ft | 379 kts | 185° |
| 2026-05-08 08:26 | 51.42915 | -1.22463 | 26693 ft | 387 kts | 184° |
| 2026-05-08 08:26 | 51.40187 | -1.22699 | 26823 ft | 395 kts | 184° |
| 2026-05-08 08:27 | 51.37408 | -1.22934 | 26954 ft | 402 kts | 184° |
| 2026-05-08 08:27 | 51.34618 | -1.23165 | 27085 ft | 409 kts | 184° |
| 2026-05-08 08:27 | 51.31744 | -1.23402 | 27221 ft | 416 kts | 184° |
| 2026-05-08 08:27 | 51.28816 | -1.23639 | 27355 ft | 422 kts | 184° |
| 2026-05-08 08:28 | 51.25853 | -1.23876 | 27490 ft | 428 kts | 184° |
| 2026-05-08 08:28 | 51.22885 | -1.24115 | 27618 ft | 434 kts | 184° |
| 2026-05-08 08:28 | 51.19859 | -1.24508 | 27756 ft | 438 kts | 190° |
| 2026-05-08 08:28 | 51.16865 | -1.25539 | 27877 ft | 442 kts | 196° |
| 2026-05-08 08:29 | 51.13865 | -1.26807 | 28067 ft | 447 kts | 197° |
| 2026-05-08 08:29 | 51.10874 | -1.28069 | 28343 ft | 450 kts | 197° |
| 2026-05-08 08:29 | 51.07798 | -1.29367 | 28611 ft | 453 kts | 197° |
| 2026-05-08 08:29 | 51.04774 | -1.30642 | 28847 ft | 456 kts | 197° |
| 2026-05-08 08:30 | 51.01686 | -1.31939 | 29062 ft | 458 kts | 197° |
| 2026-05-08 08:30 | 50.98601 | -1.33235 | 29276 ft | 460 kts | 198° |
| 2026-05-08 08:30 | 50.92767 | -1.37366 | 29685 ft | 459 kts | 216° |
| 2026-05-08 08:31 | 50.90097 | -1.40162 | 29886 ft | 461 kts | 216° |
| 2026-05-08 08:31 | 50.87445 | -1.42936 | 30063 ft | 464 kts | 217° |
| 2026-05-08 08:31 | 50.84738 | -1.45754 | 30221 ft | 467 kts | 217° |
| 2026-05-08 08:31 | 50.82017 | -1.48576 | 30461 ft | 467 kts | 217° |
| 2026-05-08 08:32 | 50.79293 | -1.51398 | 30761 ft | 467 kts | 217° |
| 2026-05-08 08:32 | 50.76571 | -1.54209 | 31065 ft | 465 kts | 217° |
| 2026-05-08 08:32 | 50.73861 | -1.57008 | 31403 ft | 463 kts | 218° |
| 2026-05-08 08:32 | 50.71197 | -1.59759 | 31702 ft | 462 kts | 218° |
| 2026-05-08 08:33 | 50.68505 | -1.62533 | 32020 ft | 460 kts | 218° |
| 2026-05-08 08:33 | 50.65828 | -1.65288 | 32326 ft | 459 kts | 218° |
| 2026-05-08 08:33 | 50.63158 | -1.68029 | 32620 ft | 457 kts | 218° |
| 2026-05-08 08:33 | 50.60491 | -1.70765 | 32928 ft | 456 kts | 218° |
| 2026-05-08 08:34 | 50.57870 | -1.73454 | 33234 ft | 454 kts | 218° |
| 2026-05-08 08:34 | 50.55227 | -1.76161 | 33525 ft | 453 kts | 218° |
| 2026-05-08 08:34 | 50.52573 | -1.78872 | 33829 ft | 451 kts | 218° |
| 2026-05-08 08:34 | 50.49938 | -1.81560 | 34116 ft | 450 kts | 218° |
| 2026-05-08 08:35 | 50.47351 | -1.84199 | 34338 ft | 449 kts | 218° |
| 2026-05-08 08:35 | 50.44731 | -1.86873 | 34571 ft | 447 kts | 219° |
| 2026-05-08 08:35 | 50.42118 | -1.89533 | 34869 ft | 445 kts | 218° |
| 2026-05-08 08:35 | 50.39520 | -1.92178 | 35013 ft | 444 kts | 218° |
| 2026-05-08 08:36 | 50.34341 | -1.97435 | 35054 ft | 441 kts | 218° |
| 2026-05-08 08:36 | 50.29215 | -2.02614 | 35049 ft | 441 kts | 218° |
| 2026-05-08 08:37 | 50.24047 | -2.07814 | 35049 ft | 441 kts | 218° |
| 2026-05-08 08:37 | 50.18876 | -2.12907 | 35051 ft | 441 kts | 217° |
| 2026-05-08 08:38 | 50.13646 | -2.17960 | 35044 ft | 441 kts | 217° |
| 2026-05-08 08:38 | 50.08426 | -2.22985 | 35047 ft | 441 kts | 217° |
| 2026-05-08 08:39 | 50.03244 | -2.28009 | 35036 ft | 441 kts | 217° |
| 2026-05-08 08:39 | 49.98046 | -2.33043 | 35079 ft | 439 kts | 217° |
| 2026-05-08 08:40 | 49.92754 | -2.37823 | 35064 ft | 442 kts | 209° |
| 2026-05-08 08:40 | 49.87130 | -2.41556 | 35076 ft | 441 kts | 208° |
| 2026-05-08 08:41 | 49.81473 | -2.45317 | 35070 ft | 441 kts | 209° |
| 2026-05-08 08:41 | 49.75836 | -2.49058 | 35063 ft | 440 kts | 208° |
| 2026-05-08 08:42 | 49.70226 | -2.52771 | 35050 ft | 440 kts | 208° |
| 2026-05-08 08:42 | 49.64596 | -2.56487 | 35042 ft | 439 kts | 208° |
| 2026-05-08 08:43 | 49.58967 | -2.60188 | 35041 ft | 439 kts | 208° |
| 2026-05-08 08:43 | 49.53373 | -2.63844 | 35037 ft | 439 kts | 208° |
| 2026-05-08 08:44 | 49.47745 | -2.67528 | 35020 ft | 439 kts | 208° |
| 2026-05-08 08:44 | 49.43074 | -2.70575 | 35032 ft | 438 kts | 208° |
| 2026-05-08 08:45 | 49.36544 | -2.74824 | 35045 ft | 437 kts | 208° |
| 2026-05-08 08:45 | 49.31882 | -2.77855 | 35049 ft | 436 kts | 208° |
| 2026-05-08 08:46 | 49.26287 | -2.81493 | 35036 ft | 436 kts | 208° |
| 2026-05-08 08:46 | 49.20691 | -2.85120 | 35043 ft | 435 kts | 208° |
| 2026-05-08 08:47 | 49.15142 | -2.88704 | 35043 ft | 435 kts | 208° |
| 2026-05-08 08:47 | 49.09560 | -2.92286 | 35039 ft | 434 kts | 208° |
| 2026-05-08 08:48 | 49.03973 | -2.95861 | 35023 ft | 434 kts | 208° |
| 2026-05-08 08:48 | 48.98415 | -2.99417 | 35028 ft | 434 kts | 207° |
| 2026-05-08 08:49 | 48.92879 | -3.02955 | 35034 ft | 434 kts | 208° |
| 2026-05-08 08:49 | 48.87300 | -3.06510 | 35037 ft | 434 kts | 207° |
| 2026-05-08 08:50 | 48.81726 | -3.10056 | 35056 ft | 433 kts | 207° |
| 2026-05-08 08:50 | 48.76174 | -3.13579 | 35041 ft | 432 kts | 207° |
| 2026-05-08 08:51 | 48.70658 | -3.17064 | 35049 ft | 432 kts | 207° |
| 2026-05-08 08:51 | 48.65101 | -3.20564 | 35047 ft | 431 kts | 207° |
| 2026-05-08 08:52 | 48.59585 | -3.24040 | 35021 ft | 431 kts | 207° |
| 2026-05-08 08:52 | 48.54046 | -3.27526 | 35029 ft | 431 kts | 207° |
| 2026-05-08 08:53 | 48.48488 | -3.31010 | 35022 ft | 431 kts | 207° |
| 2026-05-08 08:53 | 48.42941 | -3.34471 | 35020 ft | 431 kts | 207° |
| 2026-05-08 08:54 | 48.37430 | -3.37904 | 35007 ft | 431 kts | 207° |
| 2026-05-08 08:54 | 48.31886 | -3.41357 | 35010 ft | 430 kts | 207° |
| 2026-05-08 08:55 | 48.26351 | -3.44789 | 35012 ft | 430 kts | 206° |
| 2026-05-08 08:55 | 48.20811 | -3.48225 | 35020 ft | 429 kts | 206° |
| 2026-05-08 08:56 | 48.15328 | -3.51610 | 35005 ft | 428 kts | 206° |
| 2026-05-08 08:56 | 48.09810 | -3.55009 | 35008 ft | 428 kts | 206° |
| 2026-05-08 08:57 | 48.04337 | -3.58372 | 35001 ft | 427 kts | 206° |
| 2026-05-08 08:57 | 47.98827 | -3.61751 | 34999 ft | 427 kts | 206° |
| 2026-05-08 08:58 | 47.93323 | -3.65126 | 34988 ft | 427 kts | 206° |
| 2026-05-08 08:58 | 47.87845 | -3.68465 | 34988 ft | 427 kts | 206° |
| 2026-05-08 08:59 | 47.82328 | -3.71826 | 34985 ft | 427 kts | 206° |
| 2026-05-08 08:59 | 47.76856 | -3.75152 | 34985 ft | 427 kts | 206° |
| 2026-05-08 09:00 | 47.71343 | -3.78484 | 34982 ft | 427 kts | 205° |
| 2026-05-08 09:00 | 47.65880 | -3.81791 | 34998 ft | 426 kts | 205° |
| 2026-05-08 09:01 | 47.60390 | -3.85125 | 34997 ft | 425 kts | 205° |
| 2026-05-08 09:01 | 47.54909 | -3.88428 | 34992 ft | 424 kts | 205° |
| 2026-05-08 09:02 | 47.49430 | -3.91711 | 34980 ft | 424 kts | 205° |
| 2026-05-08 09:02 | 47.43989 | -3.94976 | 34978 ft | 424 kts | 205° |
| 2026-05-08 09:03 | 47.38508 | -3.98257 | 34973 ft | 423 kts | 205° |
| 2026-05-08 09:03 | 47.33046 | -4.01516 | 34971 ft | 423 kts | 205° |
| 2026-05-08 09:04 | 47.27601 | -4.04753 | 34959 ft | 423 kts | 205° |
| 2026-05-08 09:04 | 47.22164 | -4.07977 | 34960 ft | 423 kts | 205° |
| 2026-05-08 09:05 | 47.16695 | -4.11224 | 34965 ft | 423 kts | 205° |
| 2026-05-08 09:05 | 47.11263 | -4.14445 | 34972 ft | 423 kts | 204° |
| 2026-05-08 09:06 | 47.05800 | -4.17677 | 34959 ft | 422 kts | 204° |
| 2026-05-08 09:06 | 47.00345 | -4.20884 | 34961 ft | 422 kts | 204° |
| 2026-05-08 09:07 | 46.94917 | -4.24071 | 34955 ft | 421 kts | 204° |
| 2026-05-08 09:07 | 46.89462 | -4.27271 | 34956 ft | 421 kts | 204° |
| 2026-05-08 09:08 | 46.84044 | -4.30441 | 34948 ft | 421 kts | 204° |
| 2026-05-08 09:08 | 46.78590 | -4.33629 | 34951 ft | 421 kts | 204° |
| 2026-05-08 09:09 | 46.73178 | -4.36786 | 34949 ft | 421 kts | 203° |
| 2026-05-08 09:09 | 46.67734 | -4.39940 | 34947 ft | 420 kts | 203° |
| 2026-05-08 09:10 | 46.62287 | -4.43098 | 34945 ft | 420 kts | 203° |
| 2026-05-08 09:10 | 46.56881 | -4.46240 | 34945 ft | 420 kts | 204° |
| 2026-05-08 09:11 | 46.51438 | -4.49391 | 34936 ft | 420 kts | 203° |
| 2026-05-08 09:11 | 46.46009 | -4.52511 | 34925 ft | 420 kts | 203° |
| 2026-05-08 09:12 | 46.40554 | -4.55634 | 34935 ft | 420 kts | 203° |
| 2026-05-08 09:12 | 46.35154 | -4.58730 | 34934 ft | 419 kts | 203° |
| 2026-05-08 09:13 | 46.29717 | -4.61849 | 34933 ft | 419 kts | 203° |
| 2026-05-08 09:13 | 46.24282 | -4.64947 | 34919 ft | 419 kts | 203° |
| 2026-05-08 09:14 | 46.18889 | -4.68029 | 34923 ft | 418 kts | 203° |
| 2026-05-08 09:14 | 46.13474 | -4.71120 | 34918 ft | 418 kts | 203° |
| 2026-05-08 09:15 | 46.08082 | -4.74184 | 34920 ft | 418 kts | 202° |
| 2026-05-08 09:15 | 46.02658 | -4.77251 | 34920 ft | 418 kts | 202° |
| 2026-05-08 09:16 | 45.97243 | -4.80306 | 34922 ft | 417 kts | 202° |
| 2026-05-08 09:16 | 45.91863 | -4.83339 | 34922 ft | 417 kts | 202° |
| 2026-05-08 09:17 | 45.86455 | -4.86395 | 34908 ft | 417 kts | 202° |
| 2026-05-08 09:17 | 45.81055 | -4.89426 | 34908 ft | 416 kts | 202° |
| 2026-05-08 09:18 | 45.75698 | -4.92426 | 34910 ft | 415 kts | 202° |
| 2026-05-08 09:18 | 45.70308 | -4.95444 | 34908 ft | 415 kts | 202° |
| 2026-05-08 09:19 | 45.64916 | -4.98464 | 34895 ft | 415 kts | 201° |
| 2026-05-08 09:19 | 45.59573 | -5.01439 | 34891 ft | 414 kts | 201° |